Time;durP1;ratioP1;P1;durP2;ratioP2;P2;SDS_P1;SDS_P2;PMS_P1;PMS_P2;Temp;Humidity;BMP_temperature;BMP_pressure;BME280_temperature;BME280_humidity;BME280_pressure;Samples;Min_cycle;Max_cycle;Signal;HPM_P1;HPM_P2
2022/11/26 00:01:49;;;;;;;22.95;5.03;;;;;;;;;;5071201;28;20035;-77
2022/11/26 00:04:15;;;;;;;13.20;5.55;;;;;;;;;;5052409;28;20040;-78
2022/11/26 00:06:43;;;;;;;12.57;4.63;;;;;;;;;;5071219;28;20103;-78
2022/11/26 00:09:17;;;;;;;19.42;5.38;;;;;;;;;;5070167;28;20612;-78
2022/11/26 00:11:43;;;;;;;19.58;6.38;;;;;;;;;;5070818;28;20024;-78
2022/11/26 00:14:16;;;;;;;12.75;4.82;;;;;;;;;;5079526;28;20477;-78
2022/11/26 00:16:43;;;;;;;14.75;4.75;;;;;;;;;;5068124;28;20043;-77
2022/11/26 00:19:09;;;;;;;14.40;4.20;;;;;;;;;;5070532;28;20504;-78
2022/11/26 00:21:36;;;;;;;12.80;4.32;;;;;;;;;;5075989;28;20129;-78
2022/11/26 00:24:05;;;;;;;14.18;4.00;;;;;;;;;;5052905;28;20039;-78
2022/11/26 00:26:31;;;;;;;12.80;4.45;;;;;;;;;;5068341;28;20679;-78
2022/11/26 00:28:59;;;;;;;16.23;3.80;;;;;;;;;;5069890;28;20027;-78
2022/11/26 00:31:25;;;;;;;13.73;4.40;;;;;;;;;;5072742;28;20544;-78
2022/11/26 00:33:51;;;;;;;13.85;3.80;;;;;;;;;;5071061;28;20266;-78
2022/11/26 00:36:29;;;;;;;16.13;4.35;;;;;;;;;;5075778;28;20077;-78
2022/11/26 00:38:57;;;;;;;16.83;4.40;;;;;;;;;;5077674;28;20027;-77
2022/11/26 00:41:24;;;;;;;10.55;3.70;;;;;;;;;;5074516;28;20077;-79
2022/11/26 00:43:50;;;;;;;17.45;4.80;;;;;;;;;;5074349;28;20048;-78
2022/11/26 00:46:18;;;;;;;7.47;3.75;;;;;;;;;;5076788;28;20016;-78
2022/11/26 00:48:44;;;;;;;13.15;4.05;;;;;;;;;;5073927;28;20052;-78
2022/11/26 00:51:29;;;;;;;15.30;4.32;;;;;;;;;;5088060;28;20412;-78
2022/11/26 00:53:56;;;;;;;12.05;3.38;;;;;;;;;;5067580;28;20110;-77
2022/11/26 00:56:22;;;;;;;12.73;3.72;;;;;;;;;;5067686;28;20036;-77
2022/11/26 00:58:49;;;;;;;16.75;3.95;;;;;;;;;;5067605;28;20078;-77
2022/11/26 01:01:19;;;;;;;21.80;3.95;;;;;;;;;;5077418;28;20504;-77
2022/11/26 01:03:45;;;;;;;7.20;3.83;;;;;;;;;;5065501;28;20048;-79
2022/11/26 01:06:17;;;;;;;11.60;4.05;;;;;;;;;;5078664;28;20077;-77
2022/11/26 01:08:43;;;;;;;9.85;3.72;;;;;;;;;;5071821;28;20641;-77
2022/11/26 01:11:11;;;;;;;9.32;3.80;;;;;;;;;;5066371;28;20502;-78
2022/11/26 01:13:37;;;;;;;8.10;3.00;;;;;;;;;;5086892;28;20024;-78
2022/11/26 01:16:06;;;;;;;21.77;4.30;;;;;;;;;;5072196;28;20083;-78
2022/11/26 01:18:34;;;;;;;17.58;3.33;;;;;;;;;;5067899;28;20020;-78
2022/11/26 01:21:00;;;;;;;11.60;5.68;;;;;;;;;;5069781;28;20473;-78
2022/11/26 01:23:26;;;;;;;9.63;3.00;;;;;;;;;;5068210;28;20029;-78
2022/11/26 01:25:52;;;;;;;15.55;3.67;;;;;;;;;;5059778;28;20114;-77
2022/11/26 01:28:18;;;;;;;10.93;3.03;;;;;;;;;;5069144;28;20028;-78
2022/11/26 01:30:45;;;;;;;8.75;3.30;;;;;;;;;;5070877;28;20039;-78
2022/11/26 01:33:11;;;;;;;11.88;3.20;;;;;;;;;;5059585;28;20497;-77
2022/11/26 01:35:37;;;;;;;14.73;3.47;;;;;;;;;;5070275;28;20024;-77
2022/11/26 01:38:03;;;;;;;9.85;4.35;;;;;;;;;;5050288;28;20107;-78
2022/11/26 01:40:38;;;;;;;10.63;3.17;;;;;;;;;;5076576;28;20028;-78
2022/11/26 01:43:11;;;;;;;9.32;3.13;;;;;;;;;;5070922;28;20020;-78
2022/11/26 01:45:37;;;;;;;12.88;4.43;;;;;;;;;;5079780;28;20020;-78
2022/11/26 01:48:12;;;;;;;10.55;3.28;;;;;;;;;;5056318;28;20016;-78
2022/11/26 01:50:38;;;;;;;;;;;;;;;;;;5071007;28;20526;-78
2022/11/26 01:53:04;;;;;;;;;;;;;;;;;;5072303;28;19909;-77
2022/11/26 01:55:30;;;;;;;;;;;;;;;;;;5084414;28;20041;-78
2022/11/26 01:57:56;;;;;;;;;;;;;;;;;;5073277;28;19955;-78
2022/11/26 02:00:22;;;;;;;;;;;;;;;;;;5072838;28;19907;-77
2022/11/26 02:02:48;;;;;;;6.78;2.33;;;;;;;;;;5067044;28;19908;-76
2022/11/26 02:05:14;;;;;;;11.75;3.10;;;;;;;;;;5078975;28;20080;-78
2022/11/26 02:07:40;;;;;;;4.97;2.25;;;;;;;;;;5077212;28;20099;-78
2022/11/26 02:10:08;;;;;;;8.00;2.50;;;;;;;;;;5086600;28;20028;-77
2022/11/26 02:12:34;;;;;;;11.63;3.15;;;;;;;;;;5070168;28;20115;-79
2022/11/26 02:15:00;;;;;;;7.88;2.78;;;;;;;;;;5073485;28;20017;-77
2022/11/26 02:17:33;;;;;;;8.98;3.00;;;;;;;;;;5086406;28;20040;-77
2022/11/26 02:19:59;;;;;;;7.28;2.70;;;;;;;;;;5074479;28;20021;-78
2022/11/26 02:22:31;;;;;;;10.68;3.33;;;;;;;;;;5081792;28;20108;-78
2022/11/26 02:25:09;;;;;;;8.13;2.60;;;;;;;;;;5068394;28;20020;-77
2022/11/26 02:27:50;;;;;;;8.95;2.67;;;;;;;;;;5067559;28;20028;-78
2022/11/26 02:30:17;;;;;;;11.68;2.50;;;;;;;;;;5066022;28;20028;-78
2022/11/26 02:33:03;;;;;;;12.65;2.92;;;;;;;;;;5049923;28;20024;-77
2022/11/26 02:35:36;;;;;;;14.27;4.65;;;;;;;;;;5069017;28;20032;-77
2022/11/26 02:38:07;;;;;;;9.45;2.58;;;;;;;;;;5070473;28;20035;-78
2022/11/26 02:40:33;;;;;;;6.60;2.38;;;;;;;;;;5052384;28;20031;-78
2022/11/26 02:42:59;;;;;;;14.77;3.22;;;;;;;;;;5051635;28;20032;-77
2022/11/26 02:45:28;;;;;;;8.13;3.22;;;;;;;;;;5070279;28;20017;-78
2022/11/26 02:47:56;;;;;;;13.85;3.47;;;;;;;;;;5066217;28;20029;-78
2022/11/26 02:50:24;;;;;;;11.43;3.95;;;;;;;;;;5082273;28;20478;-78
2022/11/26 02:52:52;;;;;;;16.23;3.00;;;;;;;;;;5078074;28;20151;-78
2022/11/26 02:55:21;;;;;;;7.60;3.03;;;;;;;;;;5070537;28;20027;-77
2022/11/26 02:57:49;;;;;;;8.73;3.15;;;;;;;;;;5073173;28;20075;-77
2022/11/26 03:00:15;;;;;;;8.15;3.60;;;;;;;;;;5071062;28;20346;-78
2022/11/26 03:02:48;;;;;;;12.32;3.58;;;;;;;;;;5065699;28;20074;-79
2022/11/26 03:05:16;;;;;;;9.35;3.10;;;;;;;;;;5074550;28;20437;-78
2022/11/26 03:07:43;;;;;;;12.30;4.00;;;;;;;;;;5060204;28;20020;-77
2022/11/26 03:10:09;;;;;;;12.80;3.42;;;;;;;;;;5067985;28;20086;-77
2022/11/26 03:12:35;;;;;;;13.20;3.92;;;;;;;;;;5053549;28;20028;-77
2022/11/26 03:15:01;;;;;;;13.57;2.90;;;;;;;;;;5065632;28;20024;-78
2022/11/26 03:17:27;;;;;;;14.13;4.18;;;;;;;;;;5065388;28;20560;-79
2022/11/26 03:19:54;;;;;;;9.45;4.32;;;;;;;;;;5069933;28;20032;-77
2022/11/26 03:22:20;;;;;;;11.02;3.70;;;;;;;;;;5073522;28;20379;-77
2022/11/26 03:24:46;;;;;;;9.77;3.50;;;;;;;;;;5068412;28;20020;-78
2022/11/26 03:27:12;;;;;;;9.70;3.88;;;;;;;;;;5069608;28;20074;-78
2022/11/26 03:29:38;;;;;;;16.05;3.33;;;;;;;;;;5073335;28;20672;-77
2022/11/26 03:32:04;;;;;;;10.40;4.07;;;;;;;;;;5072116;28;20420;-78
2022/11/26 03:34:30;;;;;;;6.70;3.10;;;;;;;;;;5071472;28;20149;-77
2022/11/26 03:36:56;;;;;;;16.00;3.50;;;;;;;;;;5070471;28;20052;-78
2022/11/26 03:39:22;;;;;;;11.40;2.83;;;;;;;;;;5067782;28;20104;-78
2022/11/26 03:41:48;;;;;;;12.68;2.83;;;;;;;;;;5052228;28;20043;-78
2022/11/26 03:44:14;;;;;;;13.20;4.03;;;;;;;;;;5072756;28;20019;-77
2022/11/26 03:46:41;;;;;;;14.10;3.40;;;;;;;;;;5066524;28;20040;-78
2022/11/26 03:49:07;;;;;;;9.63;2.80;;;;;;;;;;5073478;28;20425;-78
2022/11/26 03:51:33;;;;;;;9.75;2.88;;;;;;;;;;5077871;28;20386;-77
2022/11/26 03:53:59;;;;;;;7.10;3.53;;;;;;;;;;5067569;28;20016;-78
2022/11/26 03:56:25;;;;;;;11.73;2.97;;;;;;;;;;5076896;28;20375;-77
2022/11/26 03:58:51;;;;;;;7.50;2.53;;;;;;;;;;5077432;28;20063;-77
2022/11/26 04:01:17;;;;;;;9.50;3.65;;;;;;;;;;5075198;28;20023;-78
2022/11/26 04:03:43;;;;;;;13.95;2.80;;;;;;;;;;5069209;28;20025;-78
2022/11/26 04:06:09;;;;;;;12.45;3.10;;;;;;;;;;5082924;28;20020;-78
2022/11/26 04:08:35;;;;;;;11.18;3.30;;;;;;;;;;5079705;28;20033;-78
2022/11/26 04:11:01;;;;;;;12.15;3.05;;;;;;;;;;5082488;28;20040;-77
2022/11/26 04:13:28;;;;;;;5.15;2.60;;;;;;;;;;5072029;28;20039;-77
2022/11/26 04:15:54;;;;;;;9.07;3.47;;;;;;;;;;5078432;28;20058;-78
2022/11/26 04:18:20;;;;;;;13.98;3.17;;;;;;;;;;5067919;28;20020;-78
2022/11/26 04:20:46;;;;;;;11.18;4.22;;;;;;;;;;5060085;28;20418;-79
2022/11/26 04:23:12;;;;;;;11.95;3.03;;;;;;;;;;5075226;28;20024;-78
2022/11/26 04:25:38;;;;;;;12.30;2.70;;;;;;;;;;5069951;28;20029;-78
2022/11/26 04:28:04;;;;;;;13.57;3.05;;;;;;;;;;5064924;28;20021;-77
2022/11/26 04:30:31;;;;;;;8.57;2.70;;;;;;;;;;5066575;28;20379;-77
2022/11/26 04:32:57;;;;;;;9.43;2.97;;;;;;;;;;5072196;28;20048;-78
2022/11/26 04:35:23;;;;;;;9.98;3.13;;;;;;;;;;5072064;28;20040;-78
2022/11/26 04:37:49;;;;;;;9.85;2.42;;;;;;;;;;5073134;28;20513;-77
2022/11/26 04:40:15;;;;;;;10.23;3.50;;;;;;;;;;5071428;28;20016;-76
2022/11/26 04:42:41;;;;;;;11.13;2.75;;;;;;;;;;5065517;28;20032;-76
2022/11/26 04:45:07;;;;;;;7.85;3.55;;;;;;;;;;5070915;28;20017;-76
2022/11/26 04:47:33;;;;;;;6.20;2.22;;;;;;;;;;5067633;28;20024;-79
2022/11/26 04:49:59;;;;;;;10.00;2.47;;;;;;;;;;5072028;28;20031;-77
2022/11/26 04:52:25;;;;;;;8.43;3.00;;;;;;;;;;5072435;28;20402;-78
2022/11/26 04:54:51;;;;;;;7.20;2.42;;;;;;;;;;5073831;28;20039;-78
2022/11/26 04:57:17;;;;;;;7.97;4.18;;;;;;;;;;5061009;28;20033;-78
2022/11/26 04:59:44;;;;;;;5.95;2.40;;;;;;;;;;5070212;28;20040;-77
2022/11/26 05:02:10;;;;;;;4.70;2.20;;;;;;;;;;5077448;28;20024;-77
2022/11/26 05:04:36;;;;;;;5.22;2.80;;;;;;;;;;5067539;28;20039;-78
2022/11/26 05:07:02;;;;;;;9.65;3.25;;;;;;;;;;5072257;28;20024;-78
2022/11/26 05:09:28;;;;;;;4.88;2.10;;;;;;;;;;5061259;28;20021;-78
2022/11/26 05:11:54;;;;;;;3.45;1.75;;;;;;;;;;5079079;28;20103;-77
2022/11/26 05:14:20;;;;;;;5.97;2.05;;;;;;;;;;5074652;28;20032;-77
2022/11/26 05:16:46;;;;;;;2.05;1.70;;;;;;;;;;5068771;28;20040;-77
2022/11/26 05:19:12;;;;;;;4.20;1.63;;;;;;;;;;5058949;28;20074;-78
2022/11/26 05:21:38;;;;;;;3.17;1.52;;;;;;;;;;5071060;28;20017;-79
2022/11/26 05:24:05;;;;;;;2.55;1.65;;;;;;;;;;5072039;28;20355;-78
2022/11/26 05:26:31;;;;;;;1.67;1.58;;;;;;;;;;5072346;28;20100;-77
2022/11/26 05:28:57;;;;;;;1.50;1.40;;;;;;;;;;5064515;28;20024;-77
2022/11/26 05:31:23;;;;;;;2.13;1.35;;;;;;;;;;5077573;28;20042;-78
2022/11/26 05:33:49;;;;;;;4.82;3.58;;;;;;;;;;5065567;28;20559;-77
2022/11/26 05:36:15;;;;;;;3.25;1.60;;;;;;;;;;5059699;28;20020;-77
2022/11/26 05:38:41;;;;;;;2.85;1.40;;;;;;;;;;5069028;28;20038;-78
2022/11/26 05:41:07;;;;;;;3.72;1.73;;;;;;;;;;5048832;28;20024;-77
2022/11/26 05:43:33;;;;;;;2.92;1.35;;;;;;;;;;5064867;28;20017;-77
2022/11/26 05:46:06;;;;;;;5.07;1.65;;;;;;;;;;5063312;28;20048;-78
2022/11/26 05:48:32;;;;;;;7.20;2.05;;;;;;;;;;5060945;28;20408;-76
2022/11/26 05:50:59;;;;;;;4.85;1.83;;;;;;;;;;5065096;28;20124;-77
2022/11/26 05:53:25;;;;;;;5.13;2.30;;;;;;;;;;5067030;28;20040;-77
2022/11/26 05:55:51;;;;;;;4.95;2.13;;;;;;;;;;5068417;28;20486;-78
2022/11/26 05:58:17;;;;;;;6.97;2.15;;;;;;;;;;5075650;28;20024;-77
2022/11/26 06:00:43;;;;;;;6.50;2.40;;;;;;;;;;5070120;28;20059;-77
2022/11/26 06:03:09;;;;;;;8.13;3.58;;;;;;;;;;5066015;28;20423;-78
2022/11/26 06:05:35;;;;;;;9.00;3.70;;;;;;;;;;5069427;28;20055;-77
2022/11/26 06:08:02;;;;;;;7.45;3.45;;;;;;;;;;5063730;28;20078;-78
2022/11/26 06:10:28;;;;;;;9.50;2.70;;;;;;;;;;5067981;28;20363;-78
2022/11/26 06:12:54;;;;;;;8.50;3.70;;;;;;;;;;5074240;28;20450;-78
2022/11/26 06:15:20;;;;;;;6.75;2.50;;;;;;;;;;5067032;28;20032;-77
2022/11/26 06:17:46;;;;;;;14.65;2.90;;;;;;;;;;5068800;28;20167;-78
2022/11/26 06:20:13;;;;;;;12.63;2.67;;;;;;;;;;5065229;28;20045;-77
2022/11/26 06:22:41;;;;;;;11.82;4.07;;;;;;;;;;5069747;28;20021;-77
2022/11/26 06:25:08;;;;;;;12.95;3.15;;;;;;;;;;5067602;28;20105;-77
2022/11/26 06:27:34;;;;;;;10.48;3.50;;;;;;;;;;5068066;28;20074;-77
2022/11/26 06:30:00;;;;;;;8.35;3.35;;;;;;;;;;5062202;28;20032;-77
2022/11/26 06:32:28;;;;;;;8.00;3.55;;;;;;;;;;5075360;28;20632;-78
2022/11/26 06:34:54;;;;;;;6.75;3.20;;;;;;;;;;5062732;28;20048;-76
2022/11/26 06:37:20;;;;;;;6.78;2.47;;;;;;;;;;5064178;28;20036;-77
2022/11/26 06:39:46;;;;;;;11.30;3.60;;;;;;;;;;5062084;28;20025;-77
2022/11/26 06:42:12;;;;;;;11.35;5.45;;;;;;;;;;5070533;28;20030;-77
2022/11/26 06:44:38;;;;;;;12.45;3.15;;;;;;;;;;5070100;28;20343;-76
2022/11/26 06:47:05;;;;;;;11.88;3.88;;;;;;;;;;5063747;28;20021;-78
2022/11/26 06:49:31;;;;;;;10.95;3.13;;;;;;;;;;5049660;28;20031;-77
2022/11/26 06:51:57;;;;;;;12.52;4.15;;;;;;;;;;5066587;28;20601;-78
2022/11/26 06:54:23;;;;;;;15.43;4.45;;;;;;;;;;5065988;28;20036;-76
2022/11/26 06:56:49;;;;;;;8.23;2.85;;;;;;;;;;5067611;28;20033;-77
2022/11/26 06:59:15;;;;;;;12.40;4.38;;;;;;;;;;5061884;28;20025;-76
2022/11/26 07:01:41;;;;;;;12.05;3.70;;;;;;;;;;5063278;28;20081;-77
2022/11/26 07:04:07;;;;;;;15.07;3.75;;;;;;;;;;5070801;28;20051;-77
2022/11/26 07:06:33;;;;;;;15.45;4.63;;;;;;;;;;5068688;28;20095;-77
2022/11/26 07:09:03;;;;;;;9.20;2.90;;;;;;;;;;5068211;28;20021;-78
2022/11/26 07:11:29;;;;;;;14.63;3.95;;;;;;;;;;5068715;28;20074;-77
2022/11/26 07:13:55;;;;;;;13.88;3.65;;;;;;;;;;5070353;28;20029;-77
2022/11/26 07:16:21;;;;;;;14.23;3.17;;;;;;;;;;5048196;28;20639;-77
2022/11/26 07:18:48;;;;;;;7.40;3.55;;;;;;;;;;5064820;28;20063;-77
2022/11/26 07:21:14;;;;;;;11.52;3.63;;;;;;;;;;5081278;28;20089;-77
2022/11/26 07:23:41;;;;;;;14.65;4.05;;;;;;;;;;5070468;28;20524;-78
2022/11/26 07:26:08;;;;;;;12.80;3.53;;;;;;;;;;5069193;28;20024;-77
2022/11/26 07:28:34;;;;;;;16.50;4.13;;;;;;;;;;5049437;28;20524;-77
2022/11/26 07:31:01;;;;;;;12.52;3.30;;;;;;;;;;5066990;28;20032;-76
2022/11/26 07:33:28;;;;;;;5.22;2.85;;;;;;;;;;5065785;28;20541;-78
2022/11/26 07:35:54;;;;;;;8.60;3.20;;;;;;;;;;5067332;28;20033;-77
2022/11/26 07:38:20;;;;;;;13.55;3.30;;;;;;;;;;5063627;28;20115;-77
2022/11/26 07:40:46;;;;;;;11.55;3.63;;;;;;;;;;5066397;28;20277;-76
2022/11/26 07:43:12;;;;;;;11.40;3.05;;;;;;;;;;5053970;28;20032;-78
2022/11/26 07:45:38;;;;;;;9.25;3.22;;;;;;;;;;5071956;28;20055;-78
2022/11/26 07:48:04;;;;;;;14.93;3.20;;;;;;;;;;5075512;28;20032;-77
2022/11/26 07:50:31;;;;;;;7.25;2.85;;;;;;;;;;5052172;28;20032;-78
2022/11/26 07:52:57;;;;;;;6.82;2.50;;;;;;;;;;5066878;28;20032;-77
2022/11/26 07:55:23;;;;;;;9.23;2.92;;;;;;;;;;5051909;28;20039;-77
2022/11/26 07:57:49;;;;;;;7.57;3.38;;;;;;;;;;5068408;28;20489;-77
2022/11/26 08:00:15;;;;;;;7.80;2.35;;;;;;;;;;5053184;28;20017;-78
2022/11/26 08:02:41;;;;;;;11.73;2.88;;;;;;;;;;5063548;28;20017;-78
2022/11/26 08:05:07;;;;;;;8.82;2.00;;;;;;;;;;5066773;28;20060;-77
2022/11/26 08:07:35;;;;;;;6.68;2.38;;;;;;;;;;5062779;28;20025;-78
2022/11/26 08:10:01;;;;;;;10.82;2.40;;;;;;;;;;5069320;28;20039;-78
2022/11/26 08:12:27;;;;;;;5.65;2.88;;;;;;;;;;5049781;28;20040;-77
2022/11/26 08:14:53;;;;;;;9.48;2.55;;;;;;;;;;5068159;28;20036;-78
2022/11/26 08:17:19;;;;;;;10.23;3.10;;;;;;;;;;5064562;28;20054;-77
2022/11/26 08:19:45;;;;;;;7.25;2.72;;;;;;;;;;5046910;28;20021;-79
2022/11/26 08:22:11;;;;;;;6.60;2.20;;;;;;;;;;5058810;28;20443;-78
2022/11/26 08:24:38;;;;;;;10.60;2.20;;;;;;;;;;5058794;28;20488;-79
2022/11/26 08:27:04;;;;;;;5.00;3.58;;;;;;;;;;5061091;28;20390;-77
2022/11/26 08:29:30;;;;;;;6.38;2.10;;;;;;;;;;5065157;28;20106;-78
2022/11/26 08:31:56;;;;;;;14.25;3.10;;;;;;;;;;5065901;28;20103;-77
2022/11/26 08:34:22;;;;;;;8.95;2.42;;;;;;;;;;5064850;28;20041;-77
2022/11/26 08:36:48;;;;;;;7.57;2.70;;;;;;;;;;5051707;28;20024;-77
2022/11/26 08:39:16;;;;;;;7.35;2.60;;;;;;;;;;5066770;28;20511;-78
2022/11/26 08:41:42;;;;;;;4.63;2.63;;;;;;;;;;5047073;28;20017;-78
2022/11/26 08:44:08;;;;;;;6.93;2.33;;;;;;;;;;5066909;28;20145;-77
2022/11/26 08:46:39;;;;;;;8.98;3.13;;;;;;;;;;5066300;28;20028;-78
2022/11/26 08:49:06;;;;;;;3.35;2.40;;;;;;;;;;5054249;28;20113;-78
2022/11/26 08:51:32;;;;;;;7.15;2.35;;;;;;;;;;5065324;28;20071;-78
2022/11/26 08:53:58;;;;;;;10.05;3.33;;;;;;;;;;5066666;28;20107;-78
2022/11/26 08:56:24;;;;;;;5.50;2.42;;;;;;;;;;5065306;28;20028;-77
2022/11/26 08:58:50;;;;;;;6.88;3.05;;;;;;;;;;5067129;28;20033;-78
2022/11/26 09:01:21;;;;;;;7.32;2.75;;;;;;;;;;5067394;28;20031;-77
2022/11/26 09:03:51;;;;;;;6.68;2.38;;;;;;;;;;5054549;28;20721;-77
2022/11/26 09:06:17;;;;;;;5.80;2.75;;;;;;;;;;5062981;28;20032;-77
2022/11/26 09:09:11;;;;;;;11.43;2.78;;;;;;;;;;5063861;28;20797;-77
2022/11/26 09:11:29;;;;;;;6.85;2.40;;;;;;;;;;5063916;28;20032;-78
2022/11/26 09:13:57;;;;;;;4.13;2.22;;;;;;;;;;5065146;28;20029;-78
2022/11/26 09:16:24;;;;;;;10.55;4.18;;;;;;;;;;5066706;28;20057;-78
2022/11/26 09:18:50;;;;;;;3.97;2.20;;;;;;;;;;5065519;28;20029;-78
2022/11/26 09:21:17;;;;;;;5.15;2.47;;;;;;;;;;5066145;28;20048;-78
2022/11/26 09:23:43;;;;;;;7.65;2.20;;;;;;;;;;5064632;28;20029;-77
2022/11/26 09:26:09;;;;;;;9.02;2.38;;;;;;;;;;5062664;28;20103;-79
2022/11/26 09:28:35;;;;;;;7.18;2.30;;;;;;;;;;5077067;28;20147;-78
2022/11/26 09:31:02;;;;;;;6.95;3.05;;;;;;;;;;5063977;28;20391;-78
2022/11/26 09:33:28;;;;;;;7.47;2.97;;;;;;;;;;5047767;28;20028;-78
2022/11/26 09:35:55;;;;;;;7.43;2.63;;;;;;;;;;5062256;28;20028;-77
2022/11/26 09:38:21;;;;;;;4.68;2.55;;;;;;;;;;5062332;28;20640;-78
2022/11/26 09:40:52;;;;;;;6.75;2.45;;;;;;;;;;5057338;28;20429;-78
2022/11/26 09:43:23;;;;;;;6.13;2.25;;;;;;;;;;5060935;28;20024;-78
2022/11/26 09:45:52;;;;;;;8.30;3.15;;;;;;;;;;5061219;28;20550;-77
2022/11/26 09:48:21;;;;;;;4.55;2.00;;;;;;;;;;5060760;28;20330;-78
2022/11/26 09:50:48;;;;;;;8.77;2.65;;;;;;;;;;5061707;28;20044;-78
2022/11/26 09:53:20;;;;;;;5.95;2.40;;;;;;;;;;5060745;28;20028;-78
2022/11/26 09:55:48;;;;;;;10.70;2.60;;;;;;;;;;5061775;28;20035;-79
2022/11/26 09:58:18;;;;;;;7.00;2.72;;;;;;;;;;5059097;28;20338;-78
2022/11/26 10:00:48;;;;;;;4.75;2.25;;;;;;;;;;5062651;28;20025;-78
2022/11/26 10:03:15;;;;;;;4.95;2.30;;;;;;;;;;5042634;28;20687;-78
2022/11/26 10:06:00;;;;;;;9.73;2.50;;;;;;;;;;5062775;28;20063;-77
2022/11/26 10:08:35;;;;;;;6.50;2.13;;;;;;;;;;5061530;28;20032;-77
2022/11/26 10:11:20;;;;;;;4.30;2.20;;;;;;;;;;5058971;28;20609;-78
2022/11/26 10:13:52;;;;;;;6.90;2.13;;;;;;;;;;5060139;28;20516;-77
2022/11/26 10:16:21;;;;;;;2.97;2.15;;;;;;;;;;5058265;28;20052;-78
2022/11/26 10:18:50;;;;;;;4.70;2.15;;;;;;;;;;5062974;28;20036;-78
2022/11/26 10:21:19;;;;;;;5.18;1.80;;;;;;;;;;5059924;28;20121;-78
2022/11/26 10:23:45;;;;;;;3.50;1.95;;;;;;;;;;5066086;28;20778;-77
2022/11/26 10:26:19;;;;;;;3.90;2.55;;;;;;;;;;5061842;28;20597;-77
2022/11/26 10:28:45;;;;;;;5.05;2.95;;;;;;;;;;5061521;28;20444;-77
2022/11/26 10:31:23;;;;;;;4.97;2.00;;;;;;;;;;5065274;28;20355;-79
2022/11/26 10:34:00;;;;;;;3.35;1.85;;;;;;;;;;5062558;28;20101;-79
2022/11/26 10:36:47;;;;;;;6.35;2.30;;;;;;;;;;5064190;28;20032;-81
2022/11/26 10:39:15;;;;;;;3.33;2.28;;;;;;;;;;5063761;28;20044;-77
2022/11/26 10:41:41;;;;;;;3.05;1.67;;;;;;;;;;5052829;28;20035;-78
2022/11/26 10:44:25;;;;;;;4.47;1.80;;;;;;;;;;5055594;28;20046;-77
2022/11/26 10:46:51;;;;;;;2.08;1.90;;;;;;;;;;5059171;28;20033;-78
2022/11/26 10:49:24;;;;;;;6.43;2.50;;;;;;;;;;5079536;28;20040;-78
2022/11/26 10:51:50;;;;;;;8.40;3.20;;;;;;;;;;5065702;28;20074;-78
2022/11/26 10:54:22;;;;;;;2.55;1.63;;;;;;;;;;5065498;28;20028;-78
2022/11/26 10:56:52;;;;;;;2.45;1.73;;;;;;;;;;5068062;28;20063;-79
2022/11/26 10:59:36;;;;;;;4.07;1.85;;;;;;;;;;5068499;28;20041;-78
2022/11/26 11:02:25;;;;;;;6.63;2.67;;;;;;;;;;5069123;28;20033;-77
2022/11/26 11:04:54;;;;;;;2.95;2.00;;;;;;;;;;5057721;28;20097;-77
2022/11/26 11:07:29;;;;;;;3.22;2.30;;;;;;;;;;5070228;28;20025;-78
2022/11/26 11:10:10;;;;;;;3.23;1.70;;;;;;;;;;5070469;28;20036;-77
2022/11/26 11:12:40;;;;;;;1.98;1.77;;;;;;;;;;5065892;28;20024;-78
2022/11/26 11:15:19;;;;;;;4.53;1.60;;;;;;;;;;5067550;28;20036;-78
2022/11/26 11:17:46;;;;;;;3.13;1.85;;;;;;;;;;5052405;28;21402;-76
2022/11/26 11:20:15;;;;;;;2.75;1.80;;;;;;;;;;5045095;28;20029;-78
2022/11/26 11:22:41;;;;;;;3.17;1.80;;;;;;;;;;5049714;28;20025;-78
2022/11/26 11:25:25;;;;;;;4.90;1.65;;;;;;;;;;5049412;28;20032;-78
2022/11/26 11:27:52;;;;;;;3.05;1.55;;;;;;;;;;5061727;28;20033;-78
2022/11/26 11:30:27;;;;;;;3.28;1.65;;;;;;;;;;5046322;28;20028;-77
2022/11/26 11:32:57;;;;;;;4.22;1.75;;;;;;;;;;5060326;28;20285;-77
2022/11/26 11:35:30;;;;;;;4.18;1.77;;;;;;;;;;5062955;28;20033;-77
2022/11/26 11:37:57;;;;;;;2.30;1.70;;;;;;;;;;5045239;28;20035;-77
2022/11/26 11:40:26;;;;;;;2.28;1.50;;;;;;;;;;5045095;28;20047;-78
2022/11/26 11:42:55;;;;;;;1.60;1.50;;;;;;;;;;5046107;28;20024;-77
2022/11/26 11:45:24;;;;;;;2.00;1.48;;;;;;;;;;5043729;28;20040;-77
2022/11/26 11:47:55;;;;;;;2.25;2.00;;;;;;;;;;5047573;28;20028;-78
2022/11/26 11:50:35;;;;;;;3.22;1.88;;;;;;;;;;5045585;28;20521;-78
2022/11/26 11:53:01;;;;;;;3.60;3.30;;;;;;;;;;5047675;28;20056;-77
2022/11/26 11:55:28;;;;;;;3.10;2.55;;;;;;;;;;5047155;28;20036;-78
2022/11/26 11:58:17;;;;;;;2.53;2.08;;;;;;;;;;5047420;28;20037;-78
2022/11/26 12:00:46;;;;;;;1.95;1.60;;;;;;;;;;5048430;28;20028;-78
2022/11/26 12:03:20;;;;;;;1.65;1.50;;;;;;;;;;5047531;28;20437;-79
2022/11/26 12:05:53;;;;;;;2.08;1.88;;;;;;;;;;5046644;28;20498;-77
2022/11/26 12:08:38;;;;;;;2.72;2.15;;;;;;;;;;5046034;28;20124;-78
2022/11/26 12:11:13;;;;;;;4.18;1.67;;;;;;;;;;5048427;28;20021;-78
2022/11/26 12:14:02;;;;;;;2.80;1.55;;;;;;;;;;5047048;28;20029;-79
2022/11/26 12:16:33;;;;;;;1.77;1.50;;;;;;;;;;5047998;28;20055;-76
2022/11/26 12:19:06;;;;;;;1.50;1.40;;;;;;;;;;5060372;28;20024;-78
2022/11/26 12:21:52;;;;;;;3.08;2.10;;;;;;;;;;5063964;28;20147;-77
2022/11/26 12:24:31;;;;;;;1.73;1.60;;;;;;;;;;5066911;28;20028;-77
2022/11/26 12:27:02;;;;;;;5.40;3.90;;;;;;;;;;5065197;28;20036;-78
2022/11/26 12:29:42;;;;;;;5.45;4.15;;;;;;;;;;5065283;28;20107;-78
2022/11/26 12:32:14;;;;;;;3.75;2.60;;;;;;;;;;5066830;28;20028;-78
2022/11/26 12:34:51;;;;;;;1.73;1.63;;;;;;;;;;5065694;28;20482;-78
2022/11/26 12:37:39;;;;;;;1.67;1.30;;;;;;;;;;5063073;28;20032;-78
2022/11/26 12:40:18;;;;;;;1.40;1.30;;;;;;;;;;5065073;28;20024;-79
2022/11/26 12:42:52;;;;;;;1.77;1.40;;;;;;;;;;5063869;28;20024;-77
2022/11/26 12:45:27;;;;;;;3.60;1.67;;;;;;;;;;5067477;28;20469;-77
2022/11/26 12:47:58;;;;;;;2.17;1.50;;;;;;;;;;5064509;28;20343;-77
2022/11/26 12:50:35;;;;;;;1.63;1.52;;;;;;;;;;5046541;28;20043;-78
2022/11/26 12:53:07;;;;;;;2.22;1.67;;;;;;;;;;5065669;28;20432;-78
2022/11/26 12:55:33;;;;;;;1.67;1.45;;;;;;;;;;5052433;28;20028;-78
2022/11/26 12:58:09;;;;;;;2.60;1.83;;;;;;;;;;5074517;28;20095;-78
2022/11/26 13:00:36;;;;;;;2.78;1.65;;;;;;;;;;5067222;28;20787;-79
2022/11/26 13:03:02;;;;;;;1.70;1.60;;;;;;;;;;5064953;28;20681;-78
2022/11/26 13:05:40;;;;;;;1.50;1.40;;;;;;;;;;5065545;28;20040;-78
2022/11/26 13:08:25;;;;;;;1.77;1.58;;;;;;;;;;5064250;28;20089;-78
2022/11/26 13:11:00;;;;;;;2.30;1.73;;;;;;;;;;5064423;28;20147;-77
2022/11/26 13:13:26;;;;;;;;;;;;;;;;;;5054868;28;20032;-77
2022/11/26 13:16:02;;;;;;;1.77;1.40;;;;;;;;;;5063344;28;19923;-77
2022/11/26 13:18:37;;;;;;;2.05;1.90;;;;;;;;;;5067116;28;20095;-76
2022/11/26 13:21:12;;;;;;;1.35;1.30;;;;;;;;;;5067105;28;20110;-77
2022/11/26 13:23:45;;;;;;;1.40;1.30;;;;;;;;;;5064154;28;20486;-77
2022/11/26 13:26:11;;;;;;;1.85;1.67;;;;;;;;;;5064450;28;20033;-78
2022/11/26 13:28:54;;;;;;;1.83;1.50;;;;;;;;;;5062562;28;20025;-78
2022/11/26 13:31:35;;;;;;;1.38;1.35;;;;;;;;;;5064565;28;20036;-79
2022/11/26 13:34:01;;;;;;;1.60;1.50;;;;;;;;;;5056840;28;20028;-78
2022/11/26 13:36:27;;;;;;;1.20;1.20;;;;;;;;;;5062148;28;20489;-77
2022/11/26 13:39:01;;;;;;;2.13;1.23;;;;;;;;;;5064727;28;20032;-78
2022/11/26 13:41:35;;;;;;;3.28;1.67;;;;;;;;;;5062660;28;20141;-78
2022/11/26 13:44:05;;;;;;;1.58;1.48;;;;;;;;;;5063987;28;20040;-78
2022/11/26 13:46:53;;;;;;;2.95;2.17;;;;;;;;;;5061759;28;20027;-78
2022/11/26 13:49:24;;;;;;;1.92;1.83;;;;;;;;;;5054382;28;20088;-78
2022/11/26 13:51:56;;;;;;;1.30;1.30;;;;;;;;;;5062870;28;20032;-78
2022/11/26 13:54:22;;;;;;;1.38;1.35;;;;;;;;;;5060517;28;20074;-78
2022/11/26 13:56:49;;;;;;;1.52;1.42;;;;;;;;;;5063927;28;20052;-78
2022/11/26 13:59:20;;;;;;;9.98;5.70;;;;;;;;;;5062135;28;20060;-77
2022/11/26 14:01:46;;;;;;;1.48;1.40;;;;;;;;;;5065133;28;20024;-77
2022/11/26 14:04:35;;;;;;;1.30;1.30;;;;;;;;;;5064201;28;20028;-78
2022/11/26 14:07:04;;;;;;;1.50;1.35;;;;;;;;;;5064462;28;20040;-78
2022/11/26 14:09:45;;;;;;;1.83;1.50;;;;;;;;;;5063248;28;20367;-77
2022/11/26 14:12:15;;;;;;;1.20;1.20;;;;;;;;;;5062080;28;20427;-77
2022/11/26 14:14:41;;;;;;;1.40;1.30;;;;;;;;;;5064255;28;20115;-78
2022/11/26 14:17:07;;;;;;;1.67;1.58;;;;;;;;;;5063270;28;20053;-79
2022/11/26 14:19:40;;;;;;;2.85;1.30;;;;;;;;;;5064834;28;20024;-79
2022/11/26 14:22:07;;;;;;;1.20;1.20;;;;;;;;;;5064260;28;20563;-78
2022/11/26 14:24:48;;;;;;;1.00;1.00;;;;;;;;;;5064983;28;20039;-78
2022/11/26 14:27:15;;;;;;;1.38;1.27;;;;;;;;;;5064224;28;20086;-79
2022/11/26 14:29:41;;;;;;;1.30;1.30;;;;;;;;;;5062673;28;20039;-78
2022/11/26 14:32:17;;;;;;;1.48;1.38;;;;;;;;;;5064359;28;20036;-78
2022/11/26 14:34:48;;;;;;;1.30;1.30;;;;;;;;;;5064558;28;20032;-77
2022/11/26 14:37:16;;;;;;;1.55;1.42;;;;;;;;;;5064926;28;20036;-80
2022/11/26 14:39:42;;;;;;;1.50;1.40;;;;;;;;;;5068097;28;20032;-78
2022/11/26 14:42:15;;;;;;;2.63;1.55;;;;;;;;;;5063404;28;20024;-78
2022/11/26 14:44:41;;;;;;;1.42;1.33;;;;;;;;;;5063994;28;20042;-78
2022/11/26 14:47:10;;;;;;;1.20;1.20;;;;;;;;;;5062619;28;20078;-79
2022/11/26 14:49:39;;;;;;;1.48;1.38;;;;;;;;;;5063156;28;20488;-78
2022/11/26 14:52:14;;;;;;;1.10;1.10;;;;;;;;;;5064795;28;20029;-79